createdAt,value
2022-10-20T09:16:59.297Z,10.50
2022-10-20T09:19:28.552Z,10.50
2022-10-20T09:22:06.655Z,10.60
2022-10-20T09:24:35.482Z,10.80
2022-10-20T09:27:31.457Z,10.70
2022-10-20T09:29:59.176Z,10.80
2022-10-20T09:32:55.502Z,10.80
2022-10-20T09:35:19.961Z,10.96
2022-10-20T09:37:58.105Z,11.00
2022-10-20T09:40:26.635Z,11.10
2022-10-20T09:43:02.460Z,11.10
2022-10-20T09:45:32.159Z,11.08
2022-10-20T09:48:08.243Z,11.10
2022-10-20T09:50:38.579Z,11.08
2022-10-20T09:53:18.366Z,11.20
2022-10-20T09:55:50.306Z,11.20
2022-10-20T09:58:37.913Z,11.20
2022-10-20T10:01:15.903Z,11.28
2022-10-20T10:03:45.216Z,11.30
2022-10-20T10:06:28.343Z,11.38
2022-10-20T10:08:57.953Z,11.56
2022-10-20T10:11:33.218Z,11.54
2022-10-20T10:14:01.463Z,11.64
2022-10-20T10:16:33.625Z,11.80
2022-10-20T10:19:03.336Z,12.00
2022-10-20T10:21:43.433Z,12.16
2022-10-20T10:24:38.748Z,12.40
2022-10-20T10:27:23.915Z,12.60
2022-10-20T10:29:52.182Z,12.80
2022-10-20T10:32:29.884Z,13.00
2022-10-20T10:35:18.027Z,13.10
2022-10-20T10:37:45.959Z,13.30
2022-10-20T10:40:24.423Z,13.30
2022-10-20T10:43:30.030Z,13.30
2022-10-20T10:46:05.271Z,13.40
2022-10-20T10:49:01.180Z,13.60
2022-10-20T10:51:55.317Z,13.70
2022-10-20T10:54:35.676Z,13.70
2022-10-20T10:57:13.626Z,13.80
2022-10-20T10:59:43.543Z,13.90
2022-10-20T11:03:15.233Z,13.92
2022-10-20T11:06:32.123Z,14.04
2022-10-20T11:09:29.179Z,14.00
2022-10-20T11:12:19.747Z,13.90
2022-10-20T11:14:54.470Z,13.88
2022-10-20T11:17:29.593Z,13.70
2022-10-20T11:20:08.421Z,13.58
2022-10-20T11:23:30.132Z,13.40
2022-10-20T11:26:14.564Z,13.40
2022-10-20T11:28:45.530Z,13.50
2022-10-20T11:31:44.209Z,13.60
2022-10-20T11:34:24.395Z,13.60
2022-10-20T11:37:00.769Z,13.76
2022-10-20T11:39:38.180Z,13.90
2022-10-20T11:42:52.799Z,13.90
2022-10-20T11:45:39.428Z,14.00
2022-10-20T11:48:26.252Z,14.10
2022-10-20T11:51:26.223Z,14.00
2022-10-20T11:54:10.623Z,13.60
2022-10-20T11:57:03.214Z,13.50
2022-10-20T11:59:40.263Z,13.30
2022-10-20T12:02:42.424Z,13.20
2022-10-20T12:05:18.787Z,13.20
2022-10-20T12:08:34.642Z,13.12
2022-10-20T12:11:22.140Z,13.10
2022-10-20T12:14:02.419Z,13.10
2022-10-20T12:16:52.462Z,13.10
2022-10-20T12:19:28.099Z,13.10
2022-10-20T12:21:56.850Z,13.10
2022-10-20T12:24:35.037Z,13.06
2022-10-20T12:27:09.023Z,12.94
2022-10-20T12:29:37.282Z,12.90
2022-10-20T12:32:54.118Z,12.96
2022-10-20T12:35:24.729Z,12.70
2022-10-20T12:38:04.445Z,12.60
2022-10-20T12:40:34.958Z,12.60
2022-10-20T12:43:02.864Z,12.70
2022-10-20T12:45:39.531Z,12.76
2022-10-20T12:48:08.412Z,12.80
2022-10-20T12:50:45.345Z,12.80
2022-10-20T12:53:27.043Z,12.80
2022-10-20T12:56:09.261Z,12.70
2022-10-20T12:58:38.560Z,12.60
2022-10-20T13:01:10.786Z,12.50
2022-10-20T13:03:44.106Z,12.40
2022-10-20T13:06:24.012Z,12.40
2022-10-20T13:09:05.248Z,12.40
2022-10-20T13:11:52.979Z,12.38
2022-10-20T13:14:36.117Z,12.40
2022-10-20T13:17:10.002Z,12.50
2022-10-20T13:20:00.372Z,12.52
2022-10-20T13:22:46.778Z,12.52
2022-10-20T13:25:37.283Z,12.40
2022-10-20T13:28:14.855Z,12.20
2022-10-20T13:31:12.740Z,12.06
2022-10-20T13:34:05.991Z,12.00
2022-10-20T13:36:46.553Z,11.90
2022-10-20T13:39:25.089Z,11.80
2022-10-20T13:42:30.703Z,11.78
2022-10-20T13:45:40.154Z,11.80
2022-10-20T13:48:55.450Z,12.00
2022-10-20T13:51:28.919Z,12.00
2022-10-20T13:53:59.651Z,11.94
2022-10-20T13:56:42.571Z,11.90
2022-10-20T13:59:28.364Z,12.06
2022-10-20T14:02:22.734Z,12.30
2022-10-20T14:05:03.005Z,12.52
2022-10-20T14:08:03.219Z,12.78
2022-10-20T14:11:04.754Z,12.90
2022-10-20T14:13:34.521Z,13.00
2022-10-20T14:16:05.705Z,13.00
2022-10-20T14:18:36.105Z,13.00
2022-10-20T14:21:19.598Z,12.82
2022-10-20T14:23:48.918Z,12.40
2022-10-20T14:26:19.925Z,12.16
2022-10-20T14:28:49.030Z,11.88
2022-10-20T14:31:16.906Z,11.60
2022-10-20T14:33:46.001Z,11.42
2022-10-20T14:39:01.341Z,11.40
2022-10-20T14:41:34.486Z,11.34
2022-10-20T14:44:07.461Z,11.28
2022-10-20T14:46:44.504Z,11.10
2022-10-20T14:49:22.760Z,11.00
2022-10-20T14:52:20.380Z,10.80
2022-10-20T14:54:52.389Z,10.70
2022-10-20T14:57:20.082Z,10.60
2022-10-20T15:00:04.409Z,10.50
2022-10-20T15:02:42.019Z,10.40
2022-10-20T15:05:36.404Z,10.30
2022-10-20T15:08:28.604Z,10.22
2022-10-20T15:10:57.229Z,10.18
2022-10-20T15:13:30.676Z,10.10
2022-10-20T15:15:59.902Z,10.00
2022-10-20T15:18:28.586Z,9.90
2022-10-20T15:20:56.519Z,9.90
2022-10-20T15:23:27.004Z,9.80
2022-10-20T15:26:03.249Z,9.72
2022-10-20T15:28:51.551Z,9.70
2022-10-20T15:31:27.899Z,9.60
2022-10-20T15:33:56.982Z,9.50
2022-10-20T15:36:32.942Z,9.46
2022-10-20T15:39:01.504Z,9.40
2022-10-20T15:41:31.531Z,9.30
2022-10-20T15:44:21.933Z,9.24
2022-10-20T15:46:53.522Z,9.20
2022-10-20T15:49:21.498Z,9.10
2022-10-20T15:51:50.645Z,9.00
2022-10-20T15:54:21.225Z,9.00
2022-10-20T15:56:49.164Z,8.90
2022-10-20T15:59:17.000Z,8.80
2022-10-20T16:01:44.953Z,8.80
2022-10-20T16:04:23.712Z,8.70
2022-10-20T16:06:57.540Z,8.70
2022-10-20T16:09:27.104Z,8.60
2022-10-20T16:11:55.054Z,8.60
2022-10-20T16:14:22.813Z,8.50
2022-10-20T16:16:50.569Z,8.50
2022-10-20T16:19:18.398Z,8.40
2022-10-20T16:21:46.207Z,8.40
2022-10-20T16:24:13.920Z,8.32
2022-10-20T16:26:41.761Z,8.30
2022-10-20T16:29:09.496Z,8.30
2022-10-20T16:31:37.219Z,8.20
2022-10-20T16:34:05.025Z,8.20
2022-10-20T16:36:32.939Z,8.12
2022-10-20T16:39:01.002Z,8.10
2022-10-20T16:41:28.724Z,8.10
2022-10-20T16:44:00.838Z,8.00
2022-10-20T16:46:28.969Z,8.00
2022-10-20T16:48:57.543Z,7.92
2022-10-20T16:51:25.620Z,7.90
2022-10-20T16:54:00.810Z,7.90
2022-10-20T16:56:30.986Z,7.80
2022-10-20T16:58:58.796Z,7.78
2022-10-20T17:01:26.542Z,7.70
2022-10-20T17:03:55.196Z,7.60
2022-10-20T17:06:25.372Z,7.60
2022-10-20T17:08:53.861Z,7.56
2022-10-20T17:11:25.920Z,7.50
2022-10-20T17:13:54.102Z,7.50
2022-10-20T17:16:30.597Z,7.50
2022-10-20T17:19:00.212Z,7.50
2022-10-20T17:21:29.395Z,7.50
2022-10-20T17:23:57.439Z,7.48
2022-10-20T17:26:27.080Z,7.40
2022-10-20T17:28:55.512Z,7.40
2022-10-20T17:31:23.534Z,7.40
2022-10-20T17:33:51.642Z,7.40
2022-10-20T17:36:19.879Z,7.30
2022-10-20T17:38:47.803Z,7.30
2022-10-20T17:41:16.265Z,7.20
2022-10-20T17:43:44.323Z,7.20
2022-10-20T17:46:15.287Z,7.10
2022-10-20T17:48:43.160Z,7.10
2022-10-20T17:51:22.262Z,7.00
2022-10-20T17:53:51.956Z,7.00
2022-10-20T17:56:27.670Z,6.90
2022-10-20T17:58:56.551Z,6.86
2022-10-20T18:01:27.307Z,6.80
2022-10-20T18:04:17.120Z,6.80
2022-10-20T18:06:45.673Z,6.80
2022-10-20T18:09:16.784Z,6.74
2022-10-20T18:11:48.616Z,6.70
2022-10-20T18:14:17.295Z,6.70
2022-10-20T18:16:45.399Z,6.62
2022-10-20T18:19:16.283Z,6.60
2022-10-20T18:21:44.242Z,6.60
2022-10-20T18:24:14.568Z,6.60
2022-10-20T18:26:42.713Z,6.60
2022-10-20T18:29:11.117Z,6.58
2022-10-20T18:31:40.817Z,6.56
2022-10-20T18:34:12.626Z,6.50
2022-10-20T18:36:43.513Z,6.50
2022-10-20T18:39:15.484Z,6.50
2022-10-20T18:41:44.351Z,6.40
2022-10-20T18:44:15.429Z,6.40
2022-10-20T18:46:43.533Z,6.38
2022-10-20T18:49:13.700Z,6.30
2022-10-20T18:51:41.579Z,6.30
2022-10-20T18:54:09.641Z,6.26
2022-10-20T18:56:37.530Z,6.20
2022-10-20T18:59:09.266Z,6.14
2022-10-20T19:01:38.565Z,6.10
2022-10-20T19:04:07.306Z,6.00
2022-10-20T19:06:41.284Z,6.00
2022-10-20T19:09:12.076Z,5.90
2022-10-20T19:11:40.342Z,5.90
2022-10-20T19:14:12.010Z,5.90
2022-10-20T19:16:39.944Z,5.86
2022-10-20T19:19:07.839Z,5.80
2022-10-20T19:21:36.139Z,5.80
2022-10-20T19:24:22.703Z,5.74
2022-10-20T19:27:02.220Z,5.70
2022-10-20T19:29:35.991Z,5.70
2022-10-20T19:32:05.402Z,5.60
2022-10-20T19:34:36.520Z,5.60
2022-10-20T19:37:04.673Z,5.60
2022-10-20T19:39:35.790Z,5.60
2022-10-20T19:42:04.747Z,5.56
2022-10-20T19:44:32.704Z,5.50
2022-10-20T19:47:00.453Z,5.50
2022-10-20T19:49:28.603Z,5.50
2022-10-20T19:51:56.576Z,5.50
2022-10-20T19:54:24.403Z,5.46
2022-10-20T19:56:52.264Z,5.40
2022-10-20T20:02:49.107Z,5.40
2022-10-20T20:05:18.143Z,5.40
2022-10-20T20:07:46.418Z,5.40
2022-10-20T20:10:14.426Z,5.40
2022-10-20T20:12:42.425Z,5.34
2022-10-20T20:15:10.214Z,5.30
2022-10-20T20:17:38.247Z,5.30
2022-10-20T20:20:06.927Z,5.30
2022-10-20T20:22:34.729Z,5.20
2022-10-20T20:25:02.574Z,5.20
2022-10-20T20:27:30.647Z,5.18
2022-10-20T20:29:59.252Z,5.10
2022-10-20T20:32:27.194Z,5.10
2022-10-20T20:34:55.058Z,5.10
2022-10-20T20:37:23.250Z,5.10
2022-10-20T20:39:51.104Z,5.04
2022-10-20T20:42:18.963Z,5.00
2022-10-20T20:44:46.743Z,4.92
2022-10-20T20:47:14.602Z,4.90
2022-10-20T20:49:42.466Z,4.84
2022-10-20T20:52:10.262Z,4.80
2022-10-20T20:54:38.090Z,4.80
2022-10-20T20:57:05.780Z,4.80
2022-10-20T20:59:33.520Z,4.80
2022-10-20T21:02:01.375Z,4.80
2022-10-20T21:04:30.719Z,4.80
2022-10-20T21:07:02.888Z,4.80
2022-10-20T21:09:31.158Z,4.80
2022-10-20T21:11:58.984Z,4.70
2022-10-20T21:14:26.977Z,4.70
2022-10-20T21:16:54.725Z,4.70
2022-10-20T21:19:22.456Z,4.70
2022-10-20T21:21:50.883Z,4.60
2022-10-20T21:24:19.143Z,4.60
2022-10-20T21:26:48.920Z,4.60
2022-10-20T21:29:17.165Z,4.60
2022-10-20T21:31:44.880Z,4.52
2022-10-20T21:34:12.961Z,4.50
2022-10-20T21:36:40.855Z,4.50
2022-10-20T21:39:11.980Z,4.50
2022-10-20T21:41:39.710Z,4.50
2022-10-20T21:44:08.172Z,4.50
2022-10-20T21:46:40.342Z,4.50
2022-10-20T21:49:11.625Z,4.46
2022-10-20T21:51:45.773Z,4.40
2022-10-20T21:54:18.874Z,4.30
2022-10-20T21:56:49.866Z,4.30
2022-10-20T21:59:23.713Z,4.22
2022-10-20T22:01:54.011Z,4.20
2022-10-20T22:04:25.268Z,4.30
2022-10-20T22:06:53.310Z,4.30
2022-10-20T22:09:21.286Z,4.30
2022-10-20T22:11:52.548Z,4.30
2022-10-20T22:14:20.295Z,4.30
2022-10-20T22:16:48.166Z,4.30
2022-10-20T22:19:21.984Z,4.30
2022-10-20T22:21:51.351Z,4.36
2022-10-20T22:24:20.153Z,4.32
2022-10-20T22:26:49.075Z,4.30
2022-10-20T22:29:17.009Z,4.30
2022-10-20T22:31:44.774Z,4.30
2022-10-20T22:34:13.150Z,4.30
2022-10-20T22:36:40.968Z,4.30
2022-10-20T22:39:09.243Z,4.20
2022-10-20T22:41:37.105Z,4.20
2022-10-20T22:44:06.051Z,4.20
2022-10-20T22:46:33.837Z,4.20
2022-10-20T22:49:01.916Z,4.20
2022-10-20T22:51:29.641Z,4.20
2022-10-20T22:53:57.646Z,4.20
2022-10-20T22:56:25.690Z,4.20
2022-10-20T22:58:54.108Z,4.10
2022-10-20T23:01:22.837Z,4.10
2022-10-20T23:03:51.056Z,4.10
2022-10-20T23:06:22.428Z,4.08
2022-10-20T23:08:53.078Z,4.10
2022-10-20T23:11:21.227Z,4.00
2022-10-20T23:13:51.278Z,4.00
2022-10-20T23:16:19.568Z,4.00
2022-10-20T23:18:47.925Z,4.00
2022-10-20T23:21:17.327Z,4.00
2022-10-20T23:23:45.635Z,3.98
2022-10-20T23:26:13.633Z,3.94
2022-10-20T23:28:41.977Z,3.98
2022-10-20T23:31:15.253Z,3.96
2022-10-20T23:33:44.412Z,3.98
2022-10-20T23:36:13.861Z,3.92
2022-10-20T23:38:42.642Z,3.90
2022-10-20T23:41:10.476Z,3.90
2022-10-20T23:43:38.362Z,3.90
2022-10-20T23:46:06.890Z,3.90
2022-10-20T23:48:34.858Z,3.90
2022-10-20T23:51:02.702Z,3.90
2022-10-20T23:53:30.619Z,3.82
2022-10-20T23:55:58.366Z,3.80
2022-10-20T23:58:26.397Z,3.80
